createdAt,value
2023-01-28T00:02:08.955Z,101700.28
2023-01-28T00:04:40.691Z,101690.84
2023-01-28T00:07:27.013Z,101695.72
2023-01-28T00:09:56.056Z,101692.31
2023-01-28T00:12:27.570Z,101683.06
2023-01-28T00:49:53.944Z,101708.38
2023-01-28T00:52:30.066Z,101356.75
2023-01-28T00:55:27.507Z,101680.09
2023-01-28T01:00:58.215Z,101681.06
2023-01-28T01:09:50.331Z,101717.13
2023-01-28T01:12:19.622Z,101718.56
2023-01-28T01:15:03.528Z,101720.06
2023-01-28T01:17:49.016Z,101720.88
2023-01-28T01:20:40.101Z,101355.00
2023-01-28T01:23:09.185Z,101722.31
2023-01-28T01:25:43.930Z,101517.25
2023-01-28T01:28:32.770Z,101721.91
2023-01-28T01:31:06.573Z,101718.16
2023-01-28T01:33:51.974Z,101716.59
2023-01-28T01:36:23.964Z,101719.19
2023-01-28T01:38:56.901Z,101731.38
2023-01-28T01:41:51.025Z,101727.66
2023-01-28T01:45:00.294Z,101716.75
2023-01-28T01:47:53.038Z,101692.72
2023-01-28T01:50:43.532Z,101621.53
2023-01-28T01:53:18.156Z,101548.59
2023-01-28T01:56:00.157Z,101357.78
2023-01-28T01:58:38.339Z,101384.91
2023-01-28T02:01:14.000Z,101587.81
2023-01-28T02:04:02.031Z,101363.03
2023-01-28T02:06:36.403Z,101728.56
2023-01-28T02:09:23.197Z,101725.84
2023-01-28T02:11:56.980Z,101724.50
2023-01-28T02:14:36.405Z,101719.00
2023-01-28T02:17:09.388Z,101725.06
2023-01-28T02:19:55.931Z,101735.53
2023-01-28T02:22:59.841Z,101725.38
2023-01-28T02:26:22.763Z,101720.75
2023-01-28T02:29:01.581Z,101485.28
2023-01-28T02:31:38.215Z,101730.19
2023-01-28T02:34:15.812Z,101701.97
2023-01-28T02:36:56.987Z,101507.22
2023-01-28T02:39:40.605Z,101719.88
2023-01-28T02:42:23.752Z,101660.16
2023-01-28T02:44:55.726Z,101738.47
2023-01-28T02:47:42.511Z,101742.56
2023-01-28T02:50:17.957Z,101744.06
2023-01-28T02:53:37.980Z,101742.50
2023-01-28T02:56:21.853Z,101571.31
2023-01-28T02:59:22.669Z,101466.19
2023-01-28T03:02:05.004Z,101746.66
2023-01-28T03:04:52.379Z,101713.09
2023-01-28T03:07:39.526Z,101742.22
2023-01-28T03:13:47.377Z,101749.25
2023-01-28T03:16:36.241Z,101751.16
2023-01-28T03:19:34.215Z,101738.97
2023-01-28T03:22:22.589Z,101749.91
2023-01-28T03:25:13.926Z,101756.22
2023-01-28T03:28:09.395Z,101747.81
2023-01-28T03:31:10.225Z,101622.81
2023-01-28T03:34:07.727Z,101751.94
2023-01-28T03:37:02.597Z,101758.78
2023-01-28T03:42:29.263Z,101749.59
2023-01-28T03:57:35.638Z,101775.09
2023-01-28T04:00:09.593Z,101775.28
2023-01-28T04:06:07.922Z,101759.59
2023-01-28T04:09:02.231Z,101779.22
2023-01-28T04:12:10.336Z,101776.25
2023-01-28T04:14:53.678Z,101779.16
2023-01-28T04:17:42.537Z,101782.63
2023-01-28T04:20:17.150Z,101786.28
2023-01-28T04:22:49.081Z,101789.75
2023-01-28T04:25:19.025Z,101786.28
2023-01-28T04:27:55.379Z,101787.81
2023-01-28T04:30:32.654Z,101792.78
2023-01-28T04:33:12.380Z,101789.22
2023-01-28T04:36:02.838Z,101789.09
2023-01-28T04:38:50.338Z,101790.03
2023-01-28T04:41:51.077Z,101797.31
2023-01-28T04:44:28.703Z,101785.63
2023-01-28T04:47:24.550Z,101788.22
2023-01-28T04:50:25.360Z,101792.44
2023-01-28T04:53:34.174Z,101783.06
2023-01-28T04:56:18.243Z,101789.59
2023-01-28T04:58:53.001Z,101787.00
2023-01-28T05:01:28.154Z,101791.28
2023-01-28T05:04:02.415Z,101788.94
2023-01-28T05:06:37.481Z,101792.06
2023-01-28T05:09:26.743Z,101802.56
2023-01-28T05:11:56.259Z,101791.22
2023-01-28T05:20:26.146Z,101805.59
2023-01-28T05:23:00.693Z,101588.59
2023-01-28T05:25:40.605Z,101645.53
2023-01-28T05:28:09.877Z,101548.41
2023-01-28T05:30:45.576Z,101558.94
2023-01-28T05:33:17.121Z,101823.03
2023-01-28T05:35:51.849Z,101821.59
2023-01-28T05:38:22.610Z,101821.75
2023-01-28T05:40:53.256Z,101828.19
2023-01-28T05:43:23.868Z,101817.41
2023-01-28T05:46:26.202Z,101823.06
2023-01-28T05:49:20.735Z,101830.75
2023-01-28T05:52:22.352Z,101839.75
2023-01-28T05:54:55.724Z,101840.34
2023-01-28T05:57:27.529Z,101849.94
2023-01-28T05:59:59.664Z,101847.47
2023-01-28T06:02:31.995Z,101844.13
2023-01-28T06:05:07.074Z,101852.50
2023-01-28T06:07:38.991Z,101862.66
2023-01-28T06:10:16.138Z,101865.34
2023-01-28T06:12:45.389Z,101862.72
2023-01-28T06:15:32.728Z,101865.41
2023-01-28T06:18:11.796Z,101875.25
2023-01-28T06:20:40.345Z,101755.22
2023-01-28T06:23:13.036Z,101875.41
2023-01-28T06:25:44.924Z,101880.66
2023-01-28T06:28:26.611Z,101884.91
2023-01-28T06:31:05.691Z,101887.56
2023-01-28T06:33:40.667Z,101886.75
2023-01-28T06:36:10.200Z,101889.25
2023-01-28T06:38:40.877Z,101892.00
2023-01-28T06:41:09.860Z,101887.78
2023-01-28T06:43:40.743Z,101895.59
2023-01-28T06:46:10.925Z,101886.16
2023-01-28T06:48:43.750Z,101880.16
2023-01-28T06:51:12.710Z,101883.69
2023-01-28T06:53:47.265Z,101883.75
2023-01-28T06:56:16.457Z,101890.66
2023-01-28T06:58:50.535Z,101890.94
2023-01-28T07:01:25.281Z,101660.53
2023-01-28T07:03:54.119Z,101893.81
2023-01-28T07:06:27.236Z,101901.69
2023-01-28T07:08:57.466Z,101900.03
2023-01-28T07:11:33.270Z,101901.91
2023-01-28T07:14:12.028Z,101791.22
2023-01-28T07:16:42.684Z,101902.16
2023-01-28T07:19:22.096Z,101730.94
2023-01-28T07:21:52.711Z,101905.53
2023-01-28T07:24:23.104Z,101899.91
2023-01-28T07:27:00.352Z,101904.91
2023-01-28T07:29:29.192Z,101900.53
2023-01-28T07:32:05.125Z,101904.38
2023-01-28T07:34:46.866Z,101900.19
2023-01-28T07:37:18.077Z,101898.00
2023-01-28T07:39:51.606Z,101695.25
2023-01-28T07:42:20.461Z,101901.75
2023-01-28T07:44:51.180Z,101752.66
2023-01-28T07:47:20.683Z,101901.13
2023-01-28T07:49:52.101Z,101894.94
2023-01-28T07:52:23.115Z,101797.19
2023-01-28T07:54:56.213Z,101906.47
2023-01-28T07:57:25.116Z,101904.69
2023-01-28T08:00:00.449Z,101910.31
2023-01-28T08:02:30.977Z,101763.88
2023-01-28T08:05:01.809Z,101907.84
2023-01-28T08:07:36.542Z,101641.78
2023-01-28T08:10:10.199Z,101672.59
2023-01-28T08:12:42.126Z,101906.41
2023-01-28T08:15:13.860Z,101740.50
2023-01-28T08:17:42.866Z,101919.94
2023-01-28T08:20:16.136Z,101918.56
2023-01-28T08:22:50.257Z,101783.75
2023-01-28T08:25:25.016Z,101909.13
2023-01-28T08:27:55.624Z,101912.69
2023-01-28T08:30:27.465Z,101917.19
2023-01-28T08:33:04.459Z,101662.97
2023-01-28T08:35:39.194Z,101898.84
2023-01-28T08:38:17.958Z,101918.97
2023-01-28T08:40:50.559Z,101919.28
2023-01-28T08:43:23.168Z,101924.31
2023-01-28T08:46:12.345Z,101930.31
2023-01-28T08:48:43.656Z,101924.97
2023-01-28T08:51:14.114Z,101602.13
2023-01-28T08:53:43.062Z,101926.16
2023-01-28T08:56:14.383Z,101931.88
2023-01-28T08:58:43.208Z,101938.09
2023-01-28T09:01:14.182Z,101913.78
2023-01-28T09:03:43.512Z,101934.63
2023-01-28T09:06:12.030Z,101937.63
2023-01-28T09:08:40.555Z,101854.22
2023-01-28T09:11:08.986Z,101820.84
2023-01-28T09:13:38.799Z,101895.41
2023-01-28T09:16:08.481Z,101954.44
2023-01-28T09:18:37.280Z,101946.19
2023-01-28T09:21:07.629Z,101930.91
2023-01-28T09:23:37.109Z,101937.41
2023-01-28T09:26:07.345Z,101944.03
2023-01-28T09:28:36.319Z,101952.44
2023-01-28T09:31:09.180Z,101908.28
2023-01-28T09:33:39.615Z,101950.88
2023-01-28T09:36:11.989Z,101953.63
2023-01-28T09:38:40.455Z,101955.63
2023-01-28T09:41:26.169Z,101956.28
2023-01-28T09:44:22.688Z,101920.34
2023-01-28T09:46:52.918Z,101959.13
2023-01-28T09:49:35.547Z,101968.59
2023-01-28T09:52:04.762Z,101934.81
2023-01-28T09:54:44.240Z,101972.47
2023-01-28T09:57:21.826Z,101973.94
2023-01-28T09:59:50.796Z,101948.41
2023-01-28T10:02:42.973Z,101978.88
2023-01-28T10:05:30.843Z,101975.59
2023-01-28T10:08:13.953Z,101957.94
2023-01-28T10:10:51.648Z,101975.72
2023-01-28T10:13:40.171Z,101972.53
2023-01-28T10:16:25.570Z,101989.19
2023-01-28T10:19:04.204Z,101983.03
2023-01-28T10:21:42.439Z,101981.66
2023-01-28T10:24:20.185Z,101967.59
2023-01-28T10:26:49.179Z,101990.69
2023-01-28T10:29:23.011Z,101980.59
2023-01-28T10:31:55.898Z,101977.16
2023-01-28T10:34:25.742Z,101982.44
2023-01-28T10:36:54.473Z,101986.97
2023-01-28T10:39:27.094Z,101983.91
2023-01-28T10:41:59.093Z,101981.66
2023-01-28T10:44:37.074Z,101987.88
2023-01-28T10:47:15.891Z,101981.16
2023-01-28T10:49:51.572Z,101969.22
2023-01-28T10:52:20.046Z,101979.09
2023-01-28T10:54:48.705Z,101985.16
2023-01-28T10:57:20.520Z,101985.22
2023-01-28T10:59:50.965Z,101974.03
2023-01-28T11:02:32.454Z,101972.31
2023-01-28T11:05:20.850Z,101980.22
2023-01-28T11:07:50.150Z,101974.50
2023-01-28T11:10:32.334Z,101966.81
2023-01-28T11:13:04.169Z,101923.53
2023-01-28T11:15:33.456Z,101937.13
2023-01-28T11:18:06.340Z,101936.13
2023-01-28T11:20:45.518Z,101963.22
2023-01-28T11:23:24.577Z,101968.84
2023-01-28T11:26:05.950Z,101953.81
2023-01-28T11:28:36.568Z,101960.06
2023-01-28T11:31:06.325Z,101961.56
2023-01-28T11:33:40.157Z,101940.78
2023-01-28T11:36:17.296Z,101957.88
2023-01-28T11:38:55.862Z,101953.69
2023-01-28T11:41:31.143Z,101962.78
2023-01-28T11:44:02.861Z,101958.03
2023-01-28T11:47:04.128Z,101931.84
2023-01-28T11:49:52.697Z,101944.59
2023-01-28T11:53:02.479Z,101954.06
2023-01-28T11:55:46.909Z,101913.63
2023-01-28T11:58:39.203Z,101905.63
2023-01-28T12:01:17.031Z,101947.47
2023-01-28T12:04:18.574Z,101947.31
2023-01-28T12:07:22.497Z,101858.91
2023-01-28T12:10:02.250Z,101939.63
2023-01-28T12:13:06.956Z,101887.59
2023-01-28T12:16:15.824Z,101906.84
2023-01-28T12:19:27.911Z,101930.00
2023-01-28T12:22:21.316Z,101924.84
2023-01-28T12:25:15.619Z,101865.50
2023-01-28T12:27:57.045Z,101930.19
2023-01-28T12:30:53.314Z,101914.09
2023-01-28T12:34:02.669Z,101926.75
2023-01-28T12:36:57.396Z,101880.38
2023-01-28T12:39:48.053Z,101919.41
2023-01-28T12:42:28.667Z,101889.25
2023-01-28T12:45:06.808Z,101917.69
2023-01-28T12:47:40.163Z,101917.75
2023-01-28T12:50:21.129Z,101914.88
2023-01-28T12:52:56.703Z,101921.66
2023-01-28T12:55:42.616Z,101916.41
2023-01-28T12:58:22.297Z,101815.13
2023-01-28T13:00:56.026Z,101911.13
2023-01-28T13:03:35.779Z,101920.75
2023-01-28T13:06:12.715Z,101894.41
2023-01-28T13:08:41.380Z,101885.53
2023-01-28T13:11:17.695Z,101846.22
2023-01-28T13:13:48.797Z,101923.31
2023-01-28T13:16:19.363Z,101929.38
2023-01-28T13:18:50.323Z,101936.81
2023-01-28T13:21:43.879Z,101932.94
2023-01-28T13:24:33.927Z,101931.00
2023-01-28T13:27:22.472Z,101847.50
2023-01-28T13:30:05.596Z,101928.47
2023-01-28T13:32:38.530Z,101928.47
2023-01-28T13:35:36.484Z,101921.56
2023-01-28T13:38:11.486Z,101749.44
2023-01-28T13:40:42.955Z,101932.31
2023-01-28T13:43:37.517Z,101927.81
2023-01-28T13:46:12.056Z,101936.31
2023-01-28T13:48:51.199Z,101887.22
2023-01-28T13:51:26.534Z,101945.69
2023-01-28T13:54:01.818Z,101950.53
2023-01-28T13:56:42.169Z,101940.63
2023-01-28T13:59:44.022Z,101943.47
2023-01-28T14:02:39.732Z,101943.53
2023-01-28T14:05:37.046Z,101891.91
2023-01-28T14:08:55.721Z,101935.97
2023-01-28T14:12:11.625Z,101938.53
2023-01-28T14:15:17.332Z,101904.97
2023-01-28T14:17:50.973Z,101929.59
2023-01-28T14:20:25.323Z,101935.63
2023-01-28T14:23:02.520Z,101933.03
2023-01-28T14:25:47.443Z,101917.72
2023-01-28T14:28:25.173Z,101929.53
2023-01-28T14:31:02.359Z,101809.91
2023-01-28T14:33:34.708Z,101925.53
2023-01-28T14:36:07.013Z,101890.22
2023-01-28T14:38:44.836Z,101928.34
2023-01-28T14:41:25.895Z,101908.09
2023-01-28T14:43:57.679Z,101924.91
2023-01-28T14:46:44.912Z,101924.03
2023-01-28T14:49:36.622Z,101923.03
2023-01-28T14:52:38.709Z,101921.09
2023-01-28T14:55:34.953Z,101922.69
2023-01-28T14:58:07.869Z,101923.41
2023-01-28T15:00:39.833Z,101908.31
2023-01-28T15:03:25.694Z,101921.50
2023-01-28T15:06:15.356Z,101910.25
2023-01-28T15:08:46.367Z,101913.69
2023-01-28T15:11:21.467Z,101905.84
2023-01-28T15:13:56.058Z,101908.19
2023-01-28T15:16:32.486Z,101877.84
2023-01-28T15:19:04.181Z,101871.88
2023-01-28T15:21:35.934Z,101908.94
2023-01-28T15:24:07.146Z,101795.13
2023-01-28T15:26:36.700Z,101867.94
2023-01-28T15:29:07.327Z,101903.38
2023-01-28T15:31:39.083Z,101852.66
2023-01-28T15:34:16.748Z,101896.31
2023-01-28T15:36:49.686Z,101899.81
2023-01-28T15:39:21.573Z,101845.09
2023-01-28T15:41:57.113Z,101896.56
2023-01-28T15:44:32.301Z,101893.00
2023-01-28T15:47:05.038Z,101892.91
2023-01-28T15:49:38.998Z,101887.63
2023-01-28T15:52:10.678Z,101876.78
2023-01-28T15:54:44.005Z,101904.03
2023-01-28T15:57:20.894Z,101876.50
2023-01-28T15:59:51.367Z,101912.69
2023-01-28T16:02:23.423Z,101898.00
2023-01-28T16:05:00.784Z,101838.03
2023-01-28T16:07:36.053Z,101912.69
2023-01-28T16:10:07.065Z,101917.13
2023-01-28T16:12:40.924Z,101908.47
2023-01-28T16:15:21.076Z,101908.47
2023-01-28T16:17:53.476Z,101905.88
2023-01-28T16:20:26.175Z,101916.22
2023-01-28T16:22:59.681Z,101906.69
2023-01-28T16:25:32.132Z,101910.19
2023-01-28T16:28:03.158Z,101923.09
2023-01-28T16:30:32.421Z,101930.09
2023-01-28T16:33:00.980Z,101804.13
2023-01-28T16:35:52.048Z,101896.38
2023-01-28T16:40:53.291Z,101892.66
2023-01-28T16:43:22.725Z,101938.59
2023-01-28T16:45:51.839Z,101938.56
2023-01-28T16:48:22.991Z,101950.72
2023-01-28T16:50:51.987Z,101869.16
2023-01-28T16:53:30.158Z,101943.78
2023-01-28T16:55:58.686Z,101934.13
2023-01-28T16:58:29.842Z,101932.28
2023-01-28T17:10:01.155Z,101951.94
2023-01-28T17:12:33.400Z,101883.28
2023-01-28T17:59:58.976Z,101949.09
2023-01-28T18:02:35.443Z,101962.88
2023-01-28T18:05:10.377Z,101974.25
2023-01-28T18:08:24.331Z,101975.38
2023-01-28T18:14:23.207Z,101997.38
2023-01-28T18:17:13.777Z,101999.59
2023-01-28T18:20:22.450Z,102002.19
2023-01-28T18:22:56.495Z,102016.09
2023-01-28T18:25:47.325Z,102020.56
2023-01-28T18:28:23.150Z,102034.44
2023-01-28T18:31:16.167Z,102033.38
2023-01-28T18:33:53.243Z,102045.44
2023-01-28T18:40:16.612Z,102040.94
2023-01-28T18:43:05.965Z,102042.69
2023-01-28T18:46:27.776Z,102043.53
2023-01-28T19:11:05.162Z,102031.50
2023-01-28T19:13:55.804Z,102024.44
2023-01-28T21:07:14.272Z,102011.88
2023-01-28T21:09:47.503Z,102008.31
2023-01-28T21:12:31.836Z,102014.22
2023-01-28T21:15:13.612Z,102015.16
2023-01-28T21:17:55.387Z,102011.88
2023-01-28T21:20:26.736Z,102008.31
2023-01-28T21:22:59.956Z,102015.38
2023-01-28T21:34:18.925Z,101946.13
2023-01-28T21:36:51.002Z,101989.94
2023-01-28T21:39:21.586Z,102000.28
2023-01-28T21:41:52.646Z,101999.16
2023-01-28T21:44:22.038Z,102003.63
2023-01-28T21:46:53.214Z,102001.06
2023-01-28T21:49:54.467Z,102001.97
2023-01-28T21:52:29.747Z,101999.22
2023-01-28T21:55:01.575Z,101987.66
2023-01-28T21:57:36.059Z,101996.22
2023-01-28T22:00:21.023Z,101994.31
2023-01-28T22:02:57.689Z,101999.25
2023-01-28T22:05:31.035Z,101987.88
2023-01-28T22:08:02.666Z,102000.16
2023-01-28T22:10:33.295Z,101994.28
2023-01-28T22:13:04.433Z,101992.72
2023-01-28T22:15:34.686Z,102000.75
2023-01-28T22:18:04.015Z,102001.63
2023-01-28T22:20:33.063Z,101991.19
2023-01-28T22:23:02.127Z,101995.47
2023-01-28T22:25:35.631Z,101996.47
2023-01-28T22:28:04.702Z,101990.38
2023-01-28T22:30:35.745Z,101984.16
2023-01-28T22:33:07.180Z,101989.38
2023-01-28T22:35:38.349Z,101987.34
2023-01-28T22:38:09.748Z,101993.56
2023-01-28T22:40:44.416Z,101998.84
2023-01-28T22:43:13.823Z,102002.50
2023-01-28T22:45:47.026Z,102002.59
2023-01-28T22:48:18.207Z,102000.78
2023-01-28T22:50:47.218Z,101997.19
2023-01-28T22:53:16.294Z,101994.38
2023-01-28T22:55:46.849Z,101982.06
2023-01-28T22:58:15.868Z,101975.75
2023-01-28T23:00:46.238Z,101978.25
2023-01-28T23:03:15.752Z,101981.09
2023-01-28T23:05:46.264Z,101980.72
2023-01-28T23:08:17.443Z,101976.75
2023-01-28T23:10:50.412Z,101977.19
2023-01-28T23:13:50.450Z,101948.56
2023-01-28T23:16:37.524Z,101980.25
2023-01-28T23:19:24.322Z,101977.56
2023-01-28T23:22:11.139Z,101969.13
2023-01-28T23:24:40.485Z,101960.16
2023-01-28T23:27:10.988Z,101958.28
2023-01-28T23:29:40.427Z,101957.22
2023-01-28T23:32:11.867Z,101944.78
2023-01-28T23:34:44.726Z,101939.66
2023-01-28T23:37:17.593Z,101941.31
2023-01-28T23:39:56.302Z,101946.41
2023-01-28T23:42:28.080Z,101935.28
2023-01-28T23:44:57.470Z,101937.81
2023-01-28T23:47:26.805Z,101939.97
2023-01-28T23:49:57.293Z,101947.28
2023-01-28T23:52:26.877Z,101946.97
2023-01-28T23:54:56.265Z,101951.94
2023-01-28T23:57:29.298Z,101946.50
